createdAt,value
2016-05-21T00:00:48.764Z,16.81
2016-05-21T00:01:48.844Z,16.75
2016-05-21T00:02:48.925Z,16.81
2016-05-21T00:03:48.897Z,16.83
2016-05-21T00:04:48.930Z,16.85
2016-05-21T00:05:49.027Z,16.88
2016-05-21T00:06:48.857Z,16.86
2016-05-21T00:07:49.064Z,16.77
2016-05-21T00:08:49.207Z,16.75
2016-05-21T00:09:49.178Z,16.74
2016-05-21T00:10:49.180Z,16.75
2016-05-21T00:11:49.133Z,16.8
2016-05-21T00:12:49.339Z,16.71
2016-05-21T00:13:49.342Z,16.77
2016-05-21T00:14:49.422Z,16.75
2016-05-21T00:15:49.316Z,16.7
2016-05-21T00:16:49.546Z,16.7
2016-05-21T00:17:49.570Z,16.62
2016-05-21T00:18:49.610Z,16.6
2016-05-21T00:19:49.524Z,16.62
2016-05-21T00:20:49.735Z,16.62
2016-05-21T00:21:49.601Z,16.58
2016-05-21T00:22:49.778Z,16.62
2016-05-21T00:23:49.907Z,16.63
2016-05-21T00:24:49.882Z,16.59
2016-05-21T00:25:49.917Z,16.7
2016-05-21T00:26:50.390Z,16.65
2016-05-21T00:27:50.019Z,16.73
2016-05-21T00:28:49.960Z,16.56
2016-05-21T00:29:50.088Z,16.53
2016-05-21T00:30:50.247Z,16.55
2016-05-21T00:31:50.204Z,16.6
2016-05-21T00:32:50.066Z,16.6
2016-05-21T00:33:50.272Z,16.6
2016-05-21T00:34:50.181Z,16.62
2016-05-21T00:35:50.340Z,16.56
2016-05-21T00:36:50.436Z,16.53
2016-05-21T00:37:50.501Z,16.49
2016-05-21T00:38:50.567Z,16.44
2016-05-21T00:39:50.350Z,16.5
2016-05-21T00:40:50.634Z,16.45
2016-05-21T00:41:50.856Z,16.41
2016-05-21T00:42:50.655Z,16.52
2016-05-21T00:43:50.689Z,16.5
2016-05-21T00:44:50.566Z,16.45
2016-05-21T00:45:50.773Z,16.5
2016-05-21T00:46:50.870Z,16.49
2016-05-21T00:47:50.872Z,16.37
2016-05-21T00:48:50.875Z,16.38
2016-05-21T00:49:50.955Z,16.41
2016-05-21T00:50:50.989Z,16.41
2016-05-21T00:51:51.039Z,16.31
2016-05-21T00:52:50.901Z,16.35
2016-05-21T00:53:51.076Z,16.4
2016-05-21T00:54:51.156Z,16.44
2016-05-21T00:55:51.081Z,16.49
2016-05-21T00:56:51.271Z,16.45
2016-05-21T00:57:51.226Z,16.4
2016-05-21T00:58:51.339Z,16.44
2016-05-21T00:59:51.357Z,16.45
2016-05-21T01:00:51.407Z,16.45
2016-05-21T01:01:51.379Z,16.45
2016-05-21T01:02:51.490Z,16.48
2016-05-21T01:03:51.321Z,16.4
2016-05-21T01:04:51.590Z,16.48
2016-05-21T01:05:51.545Z,16.5
2016-05-21T01:06:51.611Z,16.55
2016-05-21T01:07:51.660Z,16.55
2016-05-21T01:08:51.709Z,16.59
2016-05-21T01:09:51.728Z,16.53
2016-05-21T01:10:51.808Z,16.6
2016-05-21T01:11:52.436Z,16.55
2016-05-21T01:12:51.705Z,16.48
2016-05-21T01:13:51.894Z,16.5
2016-05-21T01:14:51.820Z,16.49
2016-05-21T01:15:51.978Z,16.5
2016-05-21T01:16:51.856Z,16.48
2016-05-21T01:17:52.078Z,16.4
2016-05-21T01:18:51.939Z,16.4
2016-05-21T01:19:52.146Z,16.34
2016-05-21T01:20:52.039Z,16.35
2016-05-21T01:21:52.291Z,16.31
2016-05-21T01:22:52.310Z,16.41
2016-05-21T01:23:52.328Z,16.33
2016-05-21T01:24:52.393Z,16.38
2016-05-21T01:25:52.443Z,16.34
2016-05-21T01:26:52.257Z,16.38
2016-05-21T01:27:52.479Z,16.31
2016-05-21T01:28:52.357Z,16.37
2016-05-21T01:29:52.391Z,16.27
2016-05-21T01:30:52.613Z,16.4
2016-05-21T01:31:52.631Z,16.27
2016-05-21T01:32:52.509Z,16.31
2016-05-21T01:33:52.715Z,16.22
2016-05-21T01:34:52.732Z,16.26
2016-05-21T01:35:52.782Z,16.14
2016-05-21T01:36:52.895Z,16.18
2016-05-21T01:37:52.865Z,16.25
2016-05-21T01:38:52.931Z,16.23
2016-05-21T01:39:52.996Z,16.15
2016-05-21T01:40:53.248Z,16.18
2016-05-21T01:41:52.939Z,16.22
2016-05-21T01:42:53.161Z,16.22
2016-05-21T01:43:53.132Z,16.12
2016-05-21T01:44:53.167Z,16.18
2016-05-21T01:45:53.059Z,16.07
2016-05-21T01:46:53.312Z,16.07
2016-05-21T01:47:53.346Z,16.06
2016-05-21T01:48:53.255Z,16.07
2016-05-21T01:49:53.461Z,16.06
2016-05-21T01:50:53.385Z,16.07
2016-05-21T01:51:53.591Z,16.12
2016-05-21T01:52:53.484Z,16.07
2016-05-21T01:53:53.565Z,16.07
2016-05-21T01:54:53.568Z,16.07
2016-05-21T01:55:53.602Z,16.07
2016-05-21T01:56:53.652Z,16.06
2016-05-21T01:57:53.544Z,16.11
2016-05-21T01:58:53.594Z,16.04
2016-05-21T01:59:53.800Z,16.07
2016-05-21T02:00:53.802Z,16.04
2016-05-21T02:01:53.884Z,15.96
2016-05-21T02:02:53.995Z,16.06
2016-05-21T02:03:53.935Z,15.99
2016-05-21T02:04:54.017Z,15.93
2016-05-21T02:05:54.144Z,16.07
2016-05-21T02:06:54.053Z,15.94
2016-05-21T02:07:54.103Z,15.97
2016-05-21T02:08:54.230Z,15.89
2016-05-21T02:09:54.201Z,15.92
2016-05-21T02:10:54.095Z,15.85
2016-05-21T02:11:54.254Z,15.88
2016-05-21T02:12:54.335Z,15.89
2016-05-21T02:13:54.353Z,15.88
2016-05-21T02:14:54.387Z,15.85
2016-05-21T02:15:54.422Z,15.88
2016-05-21T02:16:54.470Z,15.88
2016-05-21T02:17:54.520Z,15.94
2016-05-21T02:18:54.225Z,15.89
2016-05-21T02:19:54.588Z,15.97
2016-05-21T02:20:54.669Z,15.99
2016-05-21T02:21:54.500Z,15.94
2016-05-21T02:22:54.721Z,15.94
2016-05-21T02:23:54.771Z,15.92
2016-05-21T02:24:54.805Z,15.94
2016-05-21T02:25:54.699Z,15.84
2016-05-21T02:26:54.716Z,15.97
2016-05-21T02:27:54.968Z,15.99
2016-05-21T02:28:54.941Z,15.96
2016-05-21T02:29:55.005Z,16
2016-05-21T02:30:55.040Z,15.96
2016-05-21T02:31:55.168Z,16.11
2016-05-21T02:32:54.967Z,16
2016-05-21T02:33:55.001Z,16.01
2016-05-21T02:34:55.222Z,15.93
2016-05-21T02:35:55.116Z,16.01
2016-05-21T02:36:55.273Z,16.03
2016-05-21T02:37:55.324Z,16.09
2016-05-21T02:38:55.202Z,16.07
2016-05-21T02:39:55.470Z,16.09
2016-05-21T02:40:55.332Z,15.92
2016-05-21T02:41:55.506Z,15.99
2016-05-21T02:42:55.603Z,16.01
2016-05-21T02:43:55.684Z,16.01
2016-05-21T02:44:55.483Z,16.01
2016-05-21T02:45:55.814Z,15.86
2016-05-21T02:46:55.738Z,15.86
2016-05-21T02:47:55.741Z,15.84
2016-05-21T02:48:55.056Z,15.89
2016-05-21T02:49:55.856Z,15.84
2016-05-21T02:50:55.891Z,15.89
2016-05-21T02:51:55.986Z,15.85
2016-05-21T02:52:55.989Z,15.89
2016-05-21T02:53:55.992Z,15.89
2016-05-21T02:54:56.307Z,15.88
2016-05-21T02:55:56.544Z,15.96
2016-05-21T02:56:55.969Z,15.85
2016-05-21T02:57:56.221Z,15.94
2016-05-21T02:58:56.052Z,15.89
2016-05-21T02:59:56.211Z,15.92
2016-05-21T03:00:56.277Z,15.94
2016-05-21T03:01:56.295Z,15.82
2016-05-21T03:02:56.328Z,15.86
2016-05-21T03:03:56.410Z,15.81
2016-05-21T03:04:56.428Z,15.88
2016-05-21T03:05:56.462Z,15.85
2016-05-21T03:06:56.495Z,15.85
2016-05-21T03:07:56.467Z,15.81
2016-05-21T03:08:56.423Z,15.72
2016-05-21T03:09:56.613Z,15.76
2016-05-21T03:10:56.522Z,15.76
2016-05-21T03:11:56.759Z,15.66
2016-05-21T03:12:56.793Z,15.63
2016-05-21T03:13:56.873Z,15.64
2016-05-21T03:14:56.876Z,15.74
2016-05-21T03:15:56.926Z,15.67
2016-05-21T03:16:57.085Z,15.68
2016-05-21T03:17:57.103Z,15.72
2016-05-21T03:18:57.028Z,15.74
2016-05-21T03:19:56.889Z,15.68
2016-05-21T03:20:57.112Z,15.74
2016-05-21T03:21:57.224Z,15.66
2016-05-21T03:22:57.195Z,15.63
2016-05-21T03:23:57.214Z,15.61
2016-05-21T03:24:57.200Z,15.6
2016-05-21T03:25:57.125Z,15.59
2016-05-21T03:26:57.440Z,15.59
2016-05-21T03:27:57.209Z,15.6
2016-05-21T03:28:57.430Z,15.6
2016-05-21T03:29:57.307Z,15.63
2016-05-21T03:30:57.482Z,15.7
2016-05-21T03:31:57.501Z,15.6
2016-05-21T03:32:57.612Z,15.66
2016-05-21T03:33:57.615Z,15.67
2016-05-21T03:34:57.477Z,15.66
2016-05-21T03:35:57.699Z,15.57
2016-05-21T03:36:57.826Z,15.64
2016-05-21T03:37:57.782Z,15.6
2016-05-21T03:38:57.910Z,15.66
2016-05-21T03:39:57.897Z,15.76
2016-05-21T03:40:58.196Z,15.7
2016-05-21T03:41:57.918Z,15.67
2016-05-21T03:42:58.076Z,15.59
2016-05-21T03:43:58.048Z,15.72
2016-05-21T03:44:58.114Z,15.79
2016-05-21T03:45:57.928Z,15.78
2016-05-21T03:46:58.197Z,15.81
2016-05-21T03:47:58.247Z,15.74
2016-05-21T03:48:58.265Z,15.76
2016-05-21T03:49:58.236Z,15.85
2016-05-21T03:50:58.380Z,15.81
2016-05-21T03:51:58.430Z,15.81
2016-05-21T03:52:58.494Z,15.85
2016-05-21T03:53:58.622Z,15.82
2016-05-21T03:54:58.484Z,15.86
2016-05-21T03:55:58.502Z,15.79
2016-05-21T03:56:58.708Z,15.84
2016-05-21T03:57:58.508Z,15.85
2016-05-21T03:58:58.667Z,15.79
2016-05-21T03:59:58.763Z,15.84
2016-05-21T04:00:58.688Z,15.81
2016-05-21T04:01:58.862Z,15.81
2016-05-21T04:02:58.755Z,15.82
2016-05-21T04:03:58.868Z,15.84
2016-05-21T04:04:58.933Z,15.85
2016-05-21T04:05:58.998Z,15.82
2016-05-21T04:06:58.970Z,15.81
2016-05-21T04:07:59.004Z,15.79
2016-05-21T04:08:59.100Z,15.81
2016-05-21T04:09:59.040Z,15.76
2016-05-21T04:10:59.043Z,15.78
2016-05-21T04:11:59.154Z,15.78
2016-05-21T04:12:59.173Z,15.81
2016-05-21T04:13:59.254Z,15.75
2016-05-21T04:14:59.367Z,15.81
2016-05-21T04:15:59.338Z,15.79
2016-05-21T04:16:59.356Z,15.86
2016-05-21T04:17:59.390Z,15.85
2016-05-21T04:18:59.439Z,15.89
2016-05-21T04:19:59.536Z,15.94
2016-05-21T04:20:59.508Z,15.96
2016-05-21T04:21:59.542Z,16.01
2016-05-21T04:22:59.309Z,16.01
2016-05-21T04:23:59.625Z,16
2016-05-21T04:24:59.518Z,16
2016-05-21T04:26:00.334Z,15.94
2016-05-21T04:26:59.991Z,16.06
2016-05-21T04:27:59.807Z,15.97
2016-05-21T04:28:59.825Z,15.99
2016-05-21T04:29:59.735Z,16
2016-05-21T04:30:59.925Z,15.97
2016-05-21T04:31:59.943Z,15.86
2016-05-21T04:33:00.040Z,15.86
2016-05-21T04:33:59.885Z,15.96
2016-05-21T04:34:59.920Z,15.84
2016-05-21T04:35:59.969Z,16.01
2016-05-21T04:37:00.221Z,16.11
2016-05-21T04:38:00.194Z,16.04
2016-05-21T04:39:00.259Z,15.94
2016-05-21T04:40:00.309Z,16
2016-05-21T04:41:00.546Z,15.97
2016-05-21T04:42:00.376Z,15.86
2016-05-21T04:43:00.254Z,16.06
2016-05-21T04:44:00.319Z,16.06
2016-05-21T04:45:00.493Z,16.09
2016-05-21T04:46:00.543Z,16.07
2016-05-21T04:47:00.578Z,16.04
2016-05-21T04:48:00.673Z,16.16
2016-05-21T04:49:00.504Z,16.22
2016-05-21T04:50:00.695Z,16.26
2016-05-21T04:51:00.745Z,16.22
2016-05-21T04:52:00.825Z,16.23
2016-05-21T04:53:00.656Z,16.33
2016-05-21T04:54:00.861Z,16.38
2016-05-21T04:55:00.880Z,16.33
2016-05-21T04:56:00.898Z,16.4
2016-05-21T04:57:00.823Z,16.45
2016-05-21T04:58:01.044Z,16.55
2016-05-21T04:59:01.062Z,16.52
2016-05-21T05:00:01.081Z,16.45
2016-05-21T05:01:01.161Z,16.5
2016-05-21T05:02:01.211Z,16.53
2016-05-21T05:03:01.229Z,16.52
2016-05-21T05:04:01.123Z,16.68
2016-05-21T05:05:01.329Z,16.81
2016-05-21T05:06:01.191Z,16.85
2016-05-21T05:07:01.412Z,16.92
2016-05-21T05:08:01.446Z,17.06
2016-05-21T05:09:01.479Z,17.1
2016-05-21T05:10:01.546Z,17.17
2016-05-21T05:11:01.563Z,17.23
2016-05-21T05:12:01.613Z,17.35
2016-05-21T05:13:01.694Z,17.41
2016-05-21T05:14:01.696Z,17.48
2016-05-21T05:15:01.746Z,17.62
2016-05-21T05:16:01.781Z,17.7
2016-05-21T05:17:01.862Z,17.71
2016-05-21T05:18:01.848Z,17.84
2016-05-21T05:19:01.882Z,17.89
2016-05-21T05:20:01.947Z,18.03
2016-05-21T05:21:01.825Z,18
2016-05-21T05:22:02.015Z,18.02
2016-05-21T05:23:02.064Z,17.97
2016-05-21T05:24:02.223Z,18.02
2016-05-21T05:25:02.148Z,18.07
2016-05-21T05:26:02.260Z,18.18
2016-05-21T05:27:02.216Z,18.03
2016-05-21T05:28:02.313Z,18.19
2016-05-21T05:29:02.315Z,18.21
2016-05-21T05:30:02.365Z,18.21
2016-05-21T05:31:02.414Z,18.31
2016-05-21T05:32:02.448Z,18.28
2016-05-21T05:33:02.466Z,18.25
2016-05-21T05:34:02.516Z,18.15
2016-05-21T05:35:02.628Z,18.19
2016-05-21T05:36:02.615Z,18.09
2016-05-21T05:37:02.666Z,18.09
2016-05-21T05:38:02.698Z,18.13
2016-05-21T05:39:02.592Z,18
2016-05-21T05:40:02.782Z,17.99
2016-05-21T05:41:03.316Z,18.06
2016-05-21T05:42:03.412Z,17.95
2016-05-21T05:43:02.915Z,17.92
2016-05-21T05:44:15.715Z,17.94
2016-05-21T05:45:03.015Z,17.95
2016-05-21T05:46:02.876Z,17.97
2016-05-21T05:47:03.176Z,17.99
2016-05-21T05:48:03.116Z,17.92
2016-05-21T05:49:03.197Z,17.91
2016-05-21T05:50:03.200Z,17.92
2016-05-21T05:51:03.234Z,17.99
2016-05-21T05:52:03.127Z,18.06
2016-05-21T05:53:03.380Z,18.07
2016-05-21T05:54:03.054Z,18.02
2016-05-21T05:55:03.385Z,17.89
2016-05-21T05:56:03.466Z,18.1
2016-05-21T05:57:03.500Z,18.09
2016-05-21T05:58:03.534Z,18.18
2016-05-21T05:59:03.583Z,18.09
2016-05-21T06:00:03.477Z,18.07
2016-05-21T06:01:03.541Z,18.07
2016-05-21T06:02:03.544Z,18.04
2016-05-21T06:03:03.782Z,18.21
2016-05-21T06:04:03.800Z,18.1
2016-05-21T06:05:03.834Z,18.21
2016-05-21T06:06:03.883Z,18.15
2016-05-21T06:07:03.949Z,18.19
2016-05-21T06:08:03.966Z,18.19
2016-05-21T06:09:04.016Z,18.24
2016-05-21T06:10:04.035Z,18.28
2016-05-21T06:11:04.522Z,18.22
2016-05-21T06:12:04.134Z,18.29
2016-05-21T06:13:04.168Z,18.27
2016-05-21T06:14:04.233Z,18.37
2016-05-21T06:15:04.251Z,18.39
2016-05-21T06:16:04.285Z,18.44
2016-05-21T06:17:04.335Z,18.49
2016-05-21T06:18:04.275Z,18.46
2016-05-21T06:19:04.434Z,18.61
2016-05-21T06:20:04.468Z,18.64
2016-05-21T06:21:04.501Z,18.67
2016-05-21T06:22:04.551Z,18.67
2016-05-21T06:23:04.601Z,18.79
2016-05-21T06:24:04.635Z,18.72
2016-05-21T06:25:04.700Z,18.86
2016-05-21T06:26:04.547Z,18.82
2016-05-21T06:27:04.862Z,18.84
2016-05-21T06:28:04.786Z,18.95
2016-05-21T06:29:04.836Z,18.84
2016-05-21T06:30:04.901Z,18.91
2016-05-21T06:31:04.935Z,18.95
2016-05-21T06:32:04.985Z,19.08
2016-05-21T06:33:05.065Z,19.1
2016-05-21T06:34:05.068Z,19.06
2016-05-21T06:35:05.102Z,19.05
2016-05-21T06:36:05.152Z,18.97
2016-05-21T06:37:05.186Z,18.95
2016-05-21T06:38:05.235Z,18.91
2016-05-21T06:39:05.269Z,18.99
2016-05-21T06:40:05.350Z,19.08
2016-05-21T06:41:05.041Z,19.06
2016-05-21T06:42:05.245Z,19.21
2016-05-21T06:43:05.452Z,19.24
2016-05-21T06:44:05.517Z,19.31
2016-05-21T06:45:05.535Z,19.18
2016-05-21T06:46:05.553Z,19.33
2016-05-21T06:47:05.306Z,19.39
2016-05-21T06:48:05.528Z,19.46
2016-05-21T06:49:05.702Z,19.6
2016-05-21T06:50:05.752Z,19.63
2016-05-21T06:51:05.832Z,19.7
2016-05-21T06:52:05.820Z,19.75
2016-05-21T06:53:05.869Z,19.72
2016-05-21T06:54:05.919Z,19.76
2016-05-21T06:55:05.812Z,19.88
2016-05-21T06:56:06.206Z,19.72
2016-05-21T06:57:05.739Z,19.83
2016-05-21T06:58:06.117Z,19.86
2016-05-21T06:59:06.151Z,19.86
2016-05-21T07:00:06.185Z,19.87
2016-05-21T07:01:06.250Z,20
2016-05-21T07:02:06.269Z,19.98
2016-05-21T07:03:06.302Z,20.05
2016-05-21T07:04:06.352Z,20.16
2016-05-21T07:05:06.402Z,20.06
2016-05-21T07:06:06.436Z,20.23
2016-05-21T07:07:06.485Z,20.25
2016-05-21T07:08:06.363Z,20.31
2016-05-21T07:09:06.569Z,20.38
2016-05-21T07:10:06.618Z,20.39
2016-05-21T07:11:06.667Z,20.47
2016-05-21T07:12:06.718Z,20.41
2016-05-21T07:13:06.735Z,20.56
2016-05-21T07:14:06.785Z,20.51
2016-05-21T07:15:06.851Z,20.46
2016-05-21T07:16:06.868Z,20.39
2016-05-21T07:17:06.918Z,20.38
2016-05-21T07:18:07.577Z,20.28
2016-05-21T07:19:06.877Z,20.25
2016-05-21T07:20:06.926Z,20.15
2016-05-21T07:21:07.085Z,20.06
2016-05-21T07:22:07.370Z,20.03
2016-05-21T07:23:07.012Z,19.95
2016-05-21T07:24:07.093Z,19.95
2016-05-21T07:25:07.267Z,19.91
2016-05-21T07:26:07.396Z,20
2016-05-21T07:27:07.383Z,20.06
2016-05-21T07:28:07.385Z,20.03
2016-05-21T07:29:07.435Z,20.18
2016-05-21T07:30:07.297Z,20.2
2016-05-21T07:31:07.394Z,20.39
2016-05-21T07:32:07.553Z,20.31
2016-05-21T07:33:07.602Z,20.49
2016-05-21T07:34:07.652Z,20.43
2016-05-21T07:35:07.700Z,20.54
2016-05-21T07:36:07.735Z,20.65
2016-05-21T07:37:07.644Z,20.74
2016-05-21T07:38:07.818Z,20.83
2016-05-21T07:39:07.696Z,20.95
2016-05-21T07:40:07.949Z,21.06
2016-05-21T07:41:07.983Z,21.16
2016-05-21T07:42:08.344Z,21.11
2016-05-21T07:43:08.051Z,21.26
2016-05-21T07:44:08.100Z,21.23
2016-05-21T07:45:08.118Z,21.38
2016-05-21T07:46:08.168Z,21.34
2016-05-21T07:47:08.093Z,21.45
2016-05-21T07:48:08.252Z,21.51
2016-05-21T07:49:08.301Z,21.53
2016-05-21T07:50:08.241Z,21.66
2016-05-21T07:51:08.432Z,21.59
2016-05-21T07:52:08.278Z,21.75
2016-05-21T07:53:08.483Z,21.59
2016-05-21T07:54:08.534Z,21.69
2016-05-21T07:55:08.442Z,21.72
2016-05-21T07:56:08.507Z,21.71
2016-05-21T07:57:08.823Z,21.78
2016-05-21T07:58:08.559Z,21.83
2016-05-21T07:59:08.906Z,21.91
2016-05-21T08:00:08.784Z,21.92
2016-05-21T08:01:08.818Z,22.06
2016-05-21T08:02:08.883Z,22.06
2016-05-21T08:03:08.761Z,21.98
2016-05-21T08:04:08.950Z,22.09
2016-05-21T08:05:09.031Z,22.13
2016-05-21T08:06:09.050Z,22.12
2016-05-21T08:07:09.100Z,22.19
2016-05-21T08:08:08.977Z,22.17
2016-05-21T08:09:09.183Z,22.13
2016-05-21T08:10:09.233Z,22.13
2016-05-21T08:11:09.407Z,22.19
2016-05-21T08:12:09.363Z,22.28
2016-05-21T08:13:09.382Z,22.23
2016-05-21T08:14:09.384Z,22.27
2016-05-21T08:15:09.294Z,22.38
2016-05-21T08:16:09.514Z,22.47
2016-05-21T08:17:09.455Z,22.47
2016-05-21T08:18:09.488Z,22.49
2016-05-21T08:19:09.679Z,22.5
2016-05-21T08:20:09.729Z,22.32
2016-05-21T08:21:09.574Z,22.28
2016-05-21T08:22:09.749Z,22.29
2016-05-21T08:23:09.877Z,22.17
2016-05-21T08:24:10.770Z,22.07
2016-05-21T08:25:09.898Z,21.92
2016-05-21T08:26:09.932Z,21.9
2016-05-21T08:27:09.997Z,21.75
2016-05-21T08:28:09.875Z,21.82
2016-05-21T08:29:10.096Z,21.69
2016-05-21T08:30:09.974Z,21.79
2016-05-21T08:31:10.164Z,21.74
2016-05-21T08:32:10.229Z,21.75
2016-05-21T08:33:10.310Z,21.76
2016-05-21T08:34:10.188Z,21.83
2016-05-21T08:35:10.331Z,21.88
2016-05-21T08:36:10.428Z,21.98
2016-05-21T08:37:10.462Z,22.04
2016-05-21T08:38:10.558Z,21.99
2016-05-21T08:39:10.467Z,22.06
2016-05-21T08:40:10.657Z,22.1
2016-05-21T08:41:11.035Z,22.17
2016-05-21T08:42:11.491Z,22.07
2016-05-21T08:43:10.743Z,22.07
2016-05-21T08:44:10.855Z,22.07
2016-05-21T08:45:10.827Z,21.98
2016-05-21T08:46:10.876Z,22.02
2016-05-21T08:47:10.941Z,22.1
2016-05-21T08:48:10.960Z,22.1
2016-05-21T08:49:10.807Z,22.16
2016-05-21T08:50:10.996Z,22.23
2016-05-21T08:51:11.030Z,22.22
2016-05-21T08:52:10.939Z,22.34
2016-05-21T08:53:11.129Z,22.27
2016-05-21T08:54:11.210Z,22.37
2016-05-21T08:55:11.213Z,22.29
2016-05-21T08:56:11.747Z,22.39
2016-05-21T08:57:11.328Z,22.37
2016-05-21T08:58:11.378Z,22.38
2016-05-21T08:59:11.412Z,22.35
2016-05-21T09:00:11.320Z,22.27
2016-05-21T09:01:11.479Z,22.13
2016-05-21T09:02:11.653Z,22.2
2016-05-21T09:03:11.563Z,22.09
2016-05-21T09:04:11.597Z,22.06
2016-05-21T09:05:11.646Z,22.09
2016-05-21T09:06:11.728Z,21.97
2016-05-21T09:07:11.777Z,22.01
2016-05-21T09:08:12.498Z,22.01
2016-05-21T09:09:11.689Z,21.97
2016-05-21T09:10:11.879Z,21.99
2016-05-21T09:11:13.006Z,21.83
2016-05-21T09:12:11.978Z,21.83
2016-05-21T09:13:12.636Z,21.91
2016-05-21T09:14:11.764Z,21.76
2016-05-21T09:15:12.095Z,21.71
2016-05-21T09:16:12.191Z,21.74
2016-05-21T09:17:12.366Z,21.79
2016-05-21T09:18:12.266Z,21.79
2016-05-21T09:19:12.321Z,21.74
2016-05-21T09:20:12.266Z,21.78
2016-05-21T09:21:12.493Z,21.81
2016-05-21T09:22:12.533Z,21.83
2016-05-21T09:23:12.417Z,21.9
2016-05-21T09:24:12.662Z,21.9
2016-05-21T09:25:12.751Z,21.99
2016-05-21T09:26:13.261Z,21.92
2016-05-21T09:27:12.584Z,21.85
2016-05-21T09:28:12.964Z,21.82
2016-05-21T09:29:12.844Z,21.88
2016-05-21T09:30:12.803Z,21.88
2016-05-21T09:31:13.027Z,21.92
2016-05-21T09:32:13.142Z,21.92
2016-05-21T09:33:13.068Z,22.01
2016-05-21T09:34:13.118Z,22.13
2016-05-21T09:35:12.982Z,22.17
2016-05-21T09:36:13.188Z,22.38
2016-05-21T09:37:13.271Z,22.39
2016-05-21T09:38:13.305Z,22.52
2016-05-21T09:39:13.324Z,22.5
2016-05-21T09:40:13.358Z,22.54
2016-05-21T09:41:13.408Z,22.56
2016-05-21T09:42:13.583Z,22.64
2016-05-21T09:43:13.508Z,22.64
2016-05-21T09:44:13.385Z,22.6
2016-05-21T09:45:13.278Z,22.72
2016-05-21T09:46:13.625Z,22.8
2016-05-21T09:47:13.753Z,22.84
2016-05-21T09:48:13.568Z,22.92
2016-05-21T09:49:13.821Z,23.15
2016-05-21T09:50:13.963Z,23.24
2016-05-21T09:51:13.873Z,23.45
2016-05-21T09:52:13.922Z,23.55
2016-05-21T09:53:13.941Z,23.53
2016-05-21T09:54:14.021Z,23.62
2016-05-21T09:55:14.055Z,23.62
2016-05-21T09:56:14.167Z,23.64
2016-05-21T09:57:13.997Z,23.61
2016-05-21T09:58:14.219Z,23.45
2016-05-21T09:59:14.066Z,23.62
2016-05-21T10:00:14.272Z,23.47
2016-05-21T10:01:14.290Z,23.52
2016-05-21T10:02:14.340Z,23.55
2016-05-21T10:03:14.405Z,23.55
2016-05-21T10:04:14.439Z,23.62
2016-05-21T10:05:14.473Z,23.62
2016-05-21T10:06:14.522Z,23.76
2016-05-21T10:07:14.604Z,23.86
2016-05-21T10:08:14.668Z,24.01
2016-05-21T10:09:16.249Z,24.08
2016-05-21T10:10:15.080Z,24.31
2016-05-21T10:11:15.145Z,24.38
2016-05-21T10:12:14.913Z,24.37
2016-05-21T10:13:14.854Z,24.47
2016-05-21T10:14:14.762Z,24.44
2016-05-21T10:15:15.046Z,24.49
2016-05-21T10:16:15.002Z,24.41
2016-05-21T10:17:15.099Z,24.41
2016-05-21T10:18:15.258Z,24.37
2016-05-21T10:19:15.166Z,24.26
2016-05-21T10:20:15.200Z,24.39
2016-05-21T10:21:15.360Z,24.35
2016-05-21T10:22:15.315Z,24.27
2016-05-21T10:23:15.365Z,24.31
2016-05-21T10:24:15.368Z,24.26
2016-05-21T10:25:15.261Z,24.22
2016-05-21T10:26:15.685Z,24.37
2016-05-21T10:27:15.938Z,24.56
2016-05-21T10:28:15.706Z,24.71
2016-05-21T10:29:15.584Z,24.85
2016-05-21T10:30:15.633Z,25.05
2016-05-21T10:31:15.683Z,25.01
2016-05-21T10:32:15.967Z,25.09
2016-05-21T10:33:15.830Z,25.25
2016-05-21T10:34:15.847Z,25.38
2016-05-21T10:35:15.929Z,25.46
2016-05-21T10:36:15.994Z,25.79
2016-05-21T10:37:15.888Z,25.94
2016-05-21T10:38:15.874Z,26.09
2016-05-21T10:39:16.096Z,26.12
2016-05-21T10:40:16.224Z,26.25
2016-05-21T10:41:16.413Z,26.47
2016-05-21T10:42:16.509Z,26.92
2016-05-21T10:43:16.340Z,27.41
2016-05-21T10:44:16.359Z,28.1
2016-05-21T10:45:16.409Z,28.72
2016-05-21T10:46:16.473Z,29.35
2016-05-21T10:47:16.570Z,30.05
2016-05-21T10:48:16.714Z,30.76
2016-05-21T10:49:16.482Z,31.39
2016-05-21T10:50:16.640Z,32.14
2016-05-21T10:51:16.628Z,32.95
2016-05-21T10:52:16.834Z,33.7
2016-05-21T10:53:16.993Z,34.61
2016-05-21T10:54:16.995Z,35.18
2016-05-21T10:55:16.842Z,35.77
2016-05-21T10:56:16.923Z,36.35
2016-05-21T10:57:17.223Z,36.65
2016-05-21T10:58:17.146Z,36.97
2016-05-21T10:59:17.244Z,37.42
2016-05-21T11:00:17.371Z,37.7
2016-05-21T11:01:17.217Z,38.12
2016-05-21T11:02:17.422Z,38.52
2016-05-21T11:03:17.458Z,38.8
2016-05-21T11:04:17.522Z,39.47
2016-05-21T11:05:17.555Z,40.14
2016-05-21T11:06:17.621Z,40.8
2016-05-21T11:07:17.530Z,41.03
2016-05-21T11:08:17.705Z,41.34
2016-05-21T11:09:17.801Z,41.5
2016-05-21T11:10:17.773Z,41.56
2016-05-21T11:11:17.807Z,41.75
2016-05-21T11:12:18.122Z,41.63
2016-05-21T11:13:18.046Z,41.66
2016-05-21T11:14:18.112Z,41.37
2016-05-21T11:15:18.005Z,41.31
2016-05-21T11:16:18.273Z,41.56
2016-05-21T11:17:18.417Z,41.91
2016-05-21T11:18:18.435Z,42.03
2016-05-21T11:19:18.437Z,42.12
2016-05-21T11:20:18.534Z,42.17
2016-05-21T11:21:18.521Z,42.35
2016-05-21T11:22:18.570Z,42.32
2016-05-21T11:23:18.745Z,42
2016-05-21T11:24:18.576Z,41.58
2016-05-21T11:25:18.844Z,41.2
2016-05-21T11:26:18.894Z,40.87
2016-05-21T11:27:18.755Z,40.83
2016-05-21T11:28:35.665Z,40.57
2016-05-21T11:29:19.011Z,40.08
2016-05-21T11:30:19.077Z,39.46
2016-05-21T11:31:19.125Z,39.14
2016-05-21T11:32:19.191Z,39.08
2016-05-21T11:33:19.241Z,39.46
2016-05-21T11:34:19.166Z,39.89
2016-05-21T11:35:19.386Z,40.29
2016-05-21T11:36:19.483Z,40.8
2016-05-21T11:37:19.486Z,41.22
2016-05-21T11:38:19.614Z,41.62
2016-05-21T11:39:19.616Z,42.01
2016-05-21T11:40:19.729Z,42.37
2016-05-21T11:41:19.746Z,42.68
2016-05-21T11:42:19.859Z,42.78
2016-05-21T11:43:19.720Z,42.73
2016-05-21T11:44:19.911Z,42.56
2016-05-21T11:45:21.742Z,42.49
2016-05-21T11:46:20.073Z,42.62
2016-05-21T11:47:20.107Z,42.68
2016-05-21T11:48:20.188Z,42.75
2016-05-21T11:49:20.284Z,42.85
2016-05-21T11:50:20.287Z,42.79
2016-05-21T11:51:20.351Z,42.85
2016-05-21T11:52:20.448Z,42.62
2016-05-21T11:53:20.342Z,42.23
2016-05-21T11:54:20.578Z,42.13
2016-05-21T11:55:20.690Z,41.91
2016-05-21T11:56:20.725Z,41.86
2016-05-21T11:57:21.993Z,41.86
2016-05-21T11:58:20.792Z,41.28
2016-05-21T11:59:20.717Z,40.68
2016-05-21T12:00:20.938Z,40.54
2016-05-21T12:01:20.988Z,40.61
2016-05-21T12:02:21.115Z,40.81
2016-05-21T12:03:21.103Z,41.46
2016-05-21T12:04:21.169Z,41.82
2016-05-21T12:05:21.108Z,42.23
2016-05-21T12:06:21.110Z,42.69
2016-05-21T12:07:21.176Z,43.02
2016-05-21T12:08:21.397Z,42.92
2016-05-21T12:09:21.603Z,42.76
2016-05-21T12:10:21.544Z,42.34
2016-05-21T12:11:21.593Z,41.74
2016-05-21T12:12:22.424Z,41.33
2016-05-21T12:13:21.598Z,41.08
2016-05-21T12:14:21.757Z,40.64
2016-05-21T12:15:21.869Z,39.93
2016-05-21T12:16:21.888Z,39.08
2016-05-21T12:17:21.953Z,38.32
2016-05-21T12:18:22.002Z,37.61
2016-05-21T12:19:22.068Z,37.09
2016-05-21T12:20:22.117Z,36.86
2016-05-21T12:21:22.182Z,37.04
2016-05-21T12:22:22.295Z,37.35
2016-05-21T12:23:22.359Z,37.7
2016-05-21T12:24:22.362Z,37.99
2016-05-21T12:25:22.412Z,38.12
2016-05-21T12:26:22.320Z,38.46
2016-05-21T12:27:22.573Z,38.53
2016-05-21T12:28:22.608Z,38.42
2016-05-21T12:29:22.719Z,38.53
2016-05-21T12:30:22.753Z,38.58
2016-05-21T12:31:22.756Z,38.7
2016-05-21T12:32:22.822Z,38.61
2016-05-21T12:33:22.903Z,38.45
2016-05-21T12:34:22.780Z,38.24
2016-05-21T12:35:22.986Z,37.85
2016-05-21T12:36:23.050Z,37.46
2016-05-21T12:37:23.100Z,36.97
2016-05-21T12:38:24.915Z,36.45
2016-05-21T12:39:23.872Z,36.26
2016-05-21T12:40:23.671Z,36.24
2016-05-21T12:41:23.313Z,36.58
2016-05-21T12:42:23.411Z,37.04
2016-05-21T12:43:23.460Z,37.55
2016-05-21T12:44:23.494Z,38.08
2016-05-21T12:45:23.482Z,38.45
2016-05-21T12:46:23.437Z,38.73
2016-05-21T12:47:23.924Z,38.83
2016-05-21T12:48:23.723Z,39.09
2016-05-21T12:49:23.648Z,39.27
2016-05-21T12:50:23.838Z,39.36
2016-05-21T12:51:23.904Z,39.42
2016-05-21T12:52:23.969Z,39.58
2016-05-21T12:53:24.003Z,39.61
2016-05-21T12:54:24.099Z,39.67
2016-05-21T12:55:24.211Z,39.55
2016-05-21T12:56:24.229Z,38.98